Time;durP1;ratioP1;P1;durP2;ratioP2;P2;SDS_P1;SDS_P2;PMS_P1;PMS_P2;Temp;Humidity;BMP_temperature;BMP_pressure;BME280_temperature;BME280_humidity;BME280_pressure;Samples;Min_cycle;Max_cycle;Signal;HPM_P1;HPM_P2
2021/12/06 00:01:07;;;;;;;12.63;10.67;;;5.90;90.30;;;;;;5118362;28;20468;-45
2021/12/06 00:03:52;;;;;;;12.30;9.97;;;5.90;90.30;;;;;;5118787;28;20739;-45
2021/12/06 00:06:20;;;;;;;12.13;9.53;;;5.90;90.40;;;;;;5118432;28;20437;-45
2021/12/06 00:08:48;;;;;;;11.60;9.50;;;5.90;90.40;;;;;;5117994;28;20420;-43
2021/12/06 00:11:14;;;;;;;11.27;10.07;;;5.90;90.40;;;;;;5118301;28;20484;-44
2021/12/06 00:13:43;;;;;;;11.50;10.30;;;5.90;90.40;;;;;;5111209;28;20502;-44
2021/12/06 00:16:15;;;;;;;11.10;9.97;;;5.90;90.40;;;;;;5103073;28;20852;-44
2021/12/06 00:18:41;;;;;;;9.87;8.97;;;5.90;90.40;;;;;;5116027;28;20746;-44
2021/12/06 00:21:07;;;;;;;11.37;10.10;;;5.90;90.40;;;;;;5118296;28;20886;-44
2021/12/06 00:23:34;;;;;;;11.33;9.63;;;5.90;90.50;;;;;;5117988;28;20413;-43
2021/12/06 00:26:01;;;;;;;11.83;10.63;;;5.90;90.50;;;;;;5117834;28;20428;-45
2021/12/06 00:28:27;;;;;;;11.00;9.93;;;5.90;90.50;;;;;;5114742;28;20515;-45
2021/12/06 00:30:54;;;;;;;11.40;9.97;;;5.90;90.50;;;;;;5106185;28;20457;-44
2021/12/06 00:33:20;;;;;;;10.73;9.50;;;5.90;90.50;;;;;;5106279;28;20417;-46
2021/12/06 00:35:46;;;;;;;11.47;10.03;;;5.90;90.50;;;;;;5105581;28;20463;-45
2021/12/06 00:38:13;;;;;;;11.13;9.90;;;5.90;90.50;;;;;;5104902;28;20420;-45
2021/12/06 00:40:45;;;;;;;10.73;9.63;;;5.90;90.50;;;;;;5105335;28;20525;-45
2021/12/06 00:43:11;;;;;;;10.40;9.30;;;5.90;90.50;;;;;;5106435;28;20458;-45
2021/12/06 00:45:38;;;;;;;10.80;9.10;;;5.90;90.50;;;;;;5106292;28;20430;-45
2021/12/06 00:48:04;;;;;;;12.23;9.27;;;5.90;90.50;;;;;;5107229;28;20522;-45
2021/12/06 00:50:33;;;;;;;10.60;9.20;;;5.90;90.50;;;;;;5106989;28;20431;-45
2021/12/06 00:52:59;;;;;;;10.23;9.20;;;5.90;90.50;;;;;;5106225;28;20722;-45
2021/12/06 00:55:27;;;;;;;10.47;8.20;;;5.90;90.60;;;;;;5107120;28;20721;-45
2021/12/06 00:57:53;;;;;;;9.17;7.80;;;5.90;90.60;;;;;;5107934;28;20945;-45
2021/12/06 01:00:23;;;;;;;10.70;8.47;;;5.90;90.60;;;;;;5105089;28;20719;-45
2021/12/06 01:02:49;;;;;;;9.00;8.00;;;5.90;90.60;;;;;;5105221;28;20762;-45
2021/12/06 01:05:15;;;;;;;9.20;7.80;;;5.90;90.60;;;;;;5087826;28;20434;-45
2021/12/06 01:07:41;;;;;;;8.53;7.73;;;5.80;90.60;;;;;;5110599;28;20218;-45
2021/12/06 01:10:08;;;;;;;10.40;9.03;;;5.90;90.70;;;;;;5111178;28;20431;-45
2021/12/06 01:12:36;;;;;;;8.63;7.77;;;5.90;90.70;;;;;;5109514;28;20525;-45
2021/12/06 01:15:03;;;;;;;11.13;8.20;;;5.90;90.70;;;;;;5110648;28;20495;-45
2021/12/06 01:17:29;;;;;;;9.33;8.33;;;5.90;90.60;;;;;;5109715;28;20433;-45
2021/12/06 01:19:55;;;;;;;8.50;7.70;;;5.90;90.60;;;;;;5109611;28;20427;-44
2021/12/06 01:22:27;;;;;;;9.33;8.30;;;5.80;90.60;;;;;;5108492;28;20206;-45
2021/12/06 01:25:04;;;;;;;8.80;7.90;;;5.80;90.50;;;;;;5113392;28;20448;-44
2021/12/06 01:28:12;;;;;;;10.07;8.93;;;5.80;90.60;;;;;;5115728;28;20576;-44
2021/12/06 01:41:19;;;;;;;9.43;8.50;;;5.80;90.70;;;;;;5104377;28;20511;-45
2021/12/06 01:44:05;;;;;;;9.37;8.47;;;5.80;90.70;;;;;;5109877;27;20417;-44
2021/12/06 01:46:32;;;;;;;9.37;8.47;;;5.80;90.70;;;;;;5111178;28;20466;-44
2021/12/06 01:48:58;;;;;;;10.50;9.40;;;5.80;90.70;;;;;;5109579;28;20444;-45
2021/12/06 01:51:24;;;;;;;10.03;8.70;;;5.80;90.80;;;;;;5109237;28;20897;-45
2021/12/06 01:53:50;;;;;;;11.63;9.57;;;5.70;90.80;;;;;;5111402;28;20231;-44
2021/12/06 01:56:16;;;;;;;10.00;8.43;;;5.70;90.90;;;;;;5110836;28;20706;-45
2021/12/06 01:58:43;;;;;;;2.97;2.70;;;5.70;91.40;;;;;;5107180;28;20176;-44
2021/12/06 02:01:09;;;;;;;7.03;4.30;;;6.70;99.90;;;;;;5109794;28;20434;-43
2021/12/06 02:03:35;;;;;;;5.47;4.00;;;8.10;99.90;;;;;;5108019;28;20411;-44
2021/12/06 02:06:01;;;;;;;5.23;4.73;;;9.20;99.90;;;;;;5108351;28;20858;-42
2021/12/06 02:08:52;;;;;;;4.30;3.83;;;10.10;99.90;;;;;;5110101;28;20473;-45
2021/12/06 02:11:17;;;;;;;8.87;6.70;;;10.70;99.90;;;;;;5115847;28;20177;-44
2021/12/06 02:13:58;;;;;;;9.70;7.10;;;10.70;99.20;;;;;;5119624;28;20487;-44
2021/12/06 02:16:33;;;;;;;7.80;6.90;;;10.50;96.00;;;;;;5120035;28;20481;-45
2021/12/06 02:19:04;;;;;;;8.87;8.00;;;10.00;93.40;;;;;;5109487;28;20508;-45
2021/12/06 02:21:33;;;;;;;9.60;8.70;;;9.60;92.60;;;;;;5098785;28;20437;-45
2021/12/06 02:24:02;;;;;;;8.53;7.57;;;9.10;91.80;;;;;;5099120;28;20812;-44
2021/12/06 02:26:27;;;;;;;11.17;9.00;;;8.70;91.40;;;;;;5108748;28;20432;-45
2021/12/06 02:28:54;;;;;;;9.20;8.30;;;8.30;91.10;;;;;;5117094;28;20414;-44
2021/12/06 02:31:21;;;;;;;9.50;8.60;;;8.00;91.00;;;;;;5119081;28;20187;-44
2021/12/06 02:33:49;;;;;;;12.77;9.43;;;7.70;91.00;;;;;;5118745;28;20510;-45
2021/12/06 02:36:16;;;;;;;11.37;9.87;;;7.50;91.00;;;;;;5118626;28;20483;-44
2021/12/06 02:38:42;;;;;;;11.00;9.80;;;7.30;91.00;;;;;;5120038;28;20420;-44
2021/12/06 02:41:09;;;;;;;10.90;10.00;;;7.10;90.90;;;;;;5119665;28;20437;-44
2021/12/06 02:43:35;;;;;;;11.67;10.47;;;7.00;91.00;;;;;;5119779;28;20202;-45
2021/12/06 02:46:01;;;;;;;13.93;11.20;;;6.80;91.00;;;;;;5119688;28;20436;-45
2021/12/06 02:48:27;;;;;;;12.93;11.60;;;6.70;91.10;;;;;;5119496;27;20461;-44
2021/12/06 02:50:54;;;;;;;13.43;12.13;;;6.60;91.20;;;;;;5119474;28;20481;-43
2021/12/06 02:53:22;;;;;;;14.33;12.93;;;6.50;91.20;;;;;;5119549;28;20216;-43
2021/12/06 02:55:53;;;;;;;12.87;11.57;;;6.40;91.30;;;;;;5118581;28;20437;-44
2021/12/06 03:01:08;;;;;;;14.37;12.87;;;6.30;91.50;;;;;;5101161;28;20921;-43
2021/12/06 03:03:34;;;;;;;14.57;13.07;;;6.20;91.50;;;;;;5098714;28;20442;-43
2021/12/06 03:06:00;;;;;;;14.30;12.77;;;6.10;91.60;;;;;;5099065;28;20467;-44
2021/12/06 03:08:40;;;;;;;15.47;13.87;;;6.10;91.70;;;;;;5098857;28;20476;-43
2021/12/06 03:11:10;;;;;;;14.63;12.80;;;6.00;91.70;;;;;;5099028;28;20498;-44
2021/12/06 03:13:36;;;;;;;15.20;13.70;;;6.00;91.80;;;;;;5098806;28;20808;-44
2021/12/06 03:16:02;;;;;;;15.07;13.43;;;6.00;91.90;;;;;;5098525;28;20499;-43
2021/12/06 03:18:28;;;;;;;14.03;12.40;;;5.90;91.90;;;;;;5098771;28;20418;-44
2021/12/06 03:20:53;;;;;;;14.37;12.90;;;5.90;91.90;;;;;;5098618;28;20448;-43
2021/12/06 03:23:19;;;;;;;15.40;13.40;;;5.90;91.90;;;;;;5098609;28;20237;-44
2021/12/06 03:25:45;;;;;;;17.57;14.57;;;5.90;92.00;;;;;;5098716;28;20218;-44
2021/12/06 03:28:11;;;;;;;15.87;13.40;;;5.90;92.00;;;;;;5098879;28;20208;-44
2021/12/06 03:30:36;;;;;;;14.83;13.33;;;5.90;92.10;;;;;;5098441;28;20216;-44
2021/12/06 03:33:02;;;;;;;17.50;14.43;;;5.80;92.00;;;;;;5098331;28;20423;-43
2021/12/06 03:35:28;;;;;;;15.73;13.70;;;5.80;92.00;;;;;;5098721;28;20456;-44
2021/12/06 03:37:54;;;;;;;16.63;13.70;;;5.80;92.00;;;;;;5098635;28;20200;-43
2021/12/06 03:40:19;;;;;;;16.97;13.70;;;5.80;92.10;;;;;;5098068;28;20261;-43
2021/12/06 03:42:45;;;;;;;17.43;14.80;;;5.80;92.10;;;;;;5098521;28;20177;-44
2021/12/06 03:45:12;;;;;;;16.20;13.83;;;5.70;92.10;;;;;;5098539;28;20263;-44
2021/12/06 03:47:38;;;;;;;15.73;13.90;;;5.70;92.10;;;;;;5097847;28;20476;-43
2021/12/06 03:50:05;;;;;;;17.40;13.60;;;5.70;92.10;;;;;;5098297;28;20435;-43
2021/12/06 03:52:31;;;;;;;17.87;14.87;;;5.70;92.10;;;;;;5098232;28;20423;-43
2021/12/06 03:54:57;;;;;;;16.83;15.13;;;5.70;92.20;;;;;;5098457;28;20474;-45
2021/12/06 03:57:23;;;;;;;16.23;14.53;;;5.60;92.20;;;;;;5098457;28;20426;-44
2021/12/06 03:59:50;;;;;;;15.17;13.57;;;5.60;92.30;;;;;;5098382;28;20247;-45
2021/12/06 04:02:16;;;;;;;17.17;14.83;;;5.60;92.30;;;;;;5098376;28;20418;-45
2021/12/06 04:04:43;;;;;;;17.00;14.97;;;5.60;92.40;;;;;;5098279;28;20460;-44
2021/12/06 04:07:09;;;;;;;18.83;15.07;;;5.60;92.70;;;;;;5097866;28;20756;-44
2021/12/06 04:09:35;;;;;;;16.53;14.17;;;5.60;92.40;;;;;;5096910;28;20532;-45
2021/12/06 04:12:02;;;;;;;15.23;13.67;;;5.60;92.40;;;;;;5098023;28;20475;-44
2021/12/06 04:14:28;;;;;;;17.33;14.27;;;5.60;92.40;;;;;;5096788;28;20445;-45
2021/12/06 04:16:53;;;;;;;18.17;14.60;;;5.60;92.40;;;;;;5105238;28;20442;-45
2021/12/06 04:19:19;;;;;;;16.20;14.40;;;5.60;92.50;;;;;;5118246;28;20195;-45
2021/12/06 04:21:45;;;;;;;16.60;14.30;;;5.60;92.40;;;;;;5117997;28;20176;-45
2021/12/06 04:24:11;;;;;;;17.50;14.10;;;5.60;92.40;;;;;;5117649;28;20176;-44
2021/12/06 04:26:38;;;;;;;28.87;22.20;;;5.60;92.40;;;;;;5117854;28;20272;-45
2021/12/06 04:29:04;;;;;;;49.10;32.40;;;5.60;92.40;;;;;;5118251;28;20424;-44
2021/12/06 04:31:33;;;;;;;51.60;32.27;;;5.60;92.40;;;;;;5118295;28;20470;-45
2021/12/06 04:33:59;;;;;;;44.83;28.40;;;5.60;92.40;;;;;;5117792;28;20410;-44
2021/12/06 04:36:25;;;;;;;40.73;25.43;;;5.60;92.50;;;;;;5117872;28;20697;-45
2021/12/06 04:38:51;;;;;;;37.40;25.20;;;5.60;92.50;;;;;;5116921;28;20168;-44
2021/12/06 04:41:17;;;;;;;28.60;20.70;;;5.60;92.60;;;;;;5118174;28;20567;-45
2021/12/06 04:43:42;;;;;;;24.93;19.00;;;5.60;92.60;;;;;;5121598;28;20172;-44
2021/12/06 04:46:08;;;;;;;25.40;19.40;;;5.60;92.50;;;;;;5121420;28;20892;-44
2021/12/06 04:48:34;;;;;;;24.70;19.13;;;5.60;92.60;;;;;;5121206;28;20344;-44
2021/12/06 04:51:00;;;;;;;20.50;16.23;;;5.60;92.60;;;;;;5120679;28;20503;-44
2021/12/06 04:53:28;;;;;;;21.40;17.33;;;5.60;92.60;;;;;;5121331;28;20528;-44
2021/12/06 04:56:11;;;;;;;17.63;15.37;;;5.60;92.60;;;;;;5120441;28;20513;-44
2021/12/06 04:58:49;;;;;;;16.50;14.53;;;5.60;92.60;;;;;;5120354;28;20692;-44
2021/12/06 05:01:21;;;;;;;19.30;15.63;;;5.70;92.70;;;;;;5120213;28;20493;-44
2021/12/06 05:03:46;;;;;;;16.20;14.50;;;5.70;92.70;;;;;;5120976;28;20489;-47
2021/12/06 05:06:20;;;;;;;18.70;14.27;;;5.70;92.70;;;;;;5120976;28;20844;-46
2021/12/06 05:08:49;;;;;;;15.70;14.00;;;5.70;92.80;;;;;;5123050;28;20242;-47
2021/12/06 05:11:15;;;;;;;23.70;14.93;;;5.70;92.70;;;;;;5121180;28;20854;-47
2021/12/06 05:13:43;;;;;;;16.73;12.50;;;5.70;92.70;;;;;;5121703;28;20427;-47
2021/12/06 05:16:09;;;;;;;14.10;12.60;;;5.70;92.60;;;;;;5121692;28;20824;-47
2021/12/06 05:18:35;;;;;;;14.00;12.60;;;5.80;92.60;;;;;;5121241;28;20418;-47
2021/12/06 05:21:02;;;;;;;15.43;13.87;;;5.80;92.60;;;;;;5122681;28;20515;-47
2021/12/06 05:23:29;;;;;;;14.30;12.63;;;5.80;92.50;;;;;;5121434;28;20180;-47
2021/12/06 05:25:54;;;;;;;14.07;12.63;;;5.80;92.40;;;;;;5121287;28;20426;-47
2021/12/06 05:28:25;;;;;;;12.27;11.17;;;5.80;92.40;;;;;;5120895;28;20488;-47
2021/12/06 05:30:54;;;;;;;13.50;12.10;;;5.80;92.40;;;;;;5121143;28;20219;-45
2021/12/06 05:33:29;;;;;;;14.50;13.10;;;5.80;92.40;;;;;;5120288;28;20545;-45
2021/12/06 05:35:59;;;;;;;12.60;11.23;;;5.80;92.40;;;;;;5120326;28;20858;-45
2021/12/06 05:38:27;;;;;;;12.30;11.10;;;5.80;92.40;;;;;;5119586;28;20847;-45
2021/12/06 05:40:53;;;;;;;14.00;12.60;;;5.80;92.40;;;;;;5120234;28;20437;-45
2021/12/06 05:43:19;;;;;;;11.70;10.60;;;5.70;92.40;;;;;;5120960;28;20448;-45
2021/12/06 05:45:44;;;;;;;12.20;10.90;;;5.80;92.40;;;;;;5120450;28;20443;-45
2021/12/06 05:48:10;;;;;;;12.40;11.07;;;5.80;92.40;;;;;;5119242;28;20226;-45
2021/12/06 05:50:36;;;;;;;11.63;10.53;;;5.80;92.40;;;;;;5120575;28;20180;-46
2021/12/06 05:53:02;;;;;;;12.23;11.13;;;5.80;92.40;;;;;;5120850;28;20278;-45
2021/12/06 05:55:28;;;;;;;12.03;10.83;;;5.80;92.40;;;;;;5119583;28;20186;-46
2021/12/06 05:58:01;;;;;;;11.80;10.80;;;5.80;92.40;;;;;;5119080;28;20483;-46
2021/12/06 06:00:30;;;;;;;12.90;11.60;;;5.70;92.40;;;;;;5118995;28;20441;-46
2021/12/06 06:02:57;;;;;;;12.77;11.43;;;5.70;92.40;;;;;;5118611;28;20410;-46
2021/12/06 06:05:22;;;;;;;11.53;10.43;;;5.70;92.40;;;;;;5118550;28;20438;-46
2021/12/06 06:07:48;;;;;;;13.47;12.07;;;5.70;92.40;;;;;;5118551;28;20476;-46
2021/12/06 06:10:15;;;;;;;13.43;12.13;;;5.70;92.50;;;;;;5118958;28;20184;-46
2021/12/06 06:12:41;;;;;;;11.40;10.30;;;5.70;92.50;;;;;;5119578;28;20414;-46
2021/12/06 06:15:07;;;;;;;12.50;11.00;;;5.70;92.50;;;;;;5119663;28;20917;-46
2021/12/06 06:17:40;;;;;;;13.37;11.90;;;5.70;92.50;;;;;;5116415;28;20426;-47
2021/12/06 06:20:22;;;;;;;12.00;10.80;;;5.70;92.50;;;;;;5107329;28;20446;-48
2021/12/06 06:22:49;;;;;;;12.73;11.43;;;5.70;92.50;;;;;;5116521;28;20430;-46
2021/12/06 06:25:15;;;;;;;11.93;10.73;;;5.70;92.50;;;;;;5101634;28;20509;-47
2021/12/06 06:27:42;;;;;;;11.30;10.20;;;5.70;92.50;;;;;;5096386;28;20493;-47
2021/12/06 06:30:08;;;;;;;11.97;10.87;;;5.70;92.50;;;;;;5096959;28;20879;-47
2021/12/06 06:32:33;;;;;;;12.03;10.93;;;5.70;92.50;;;;;;5078568;28;20447;-46
2021/12/06 06:35:01;;;;;;;12.50;11.20;;;5.70;92.50;;;;;;5095459;28;20462;-47
2021/12/06 06:37:26;;;;;;;13.10;11.80;;;5.70;92.50;;;;;;5094468;28;20188;-47
2021/12/06 06:39:52;;;;;;;12.50;10.73;;;5.70;92.50;;;;;;5094447;28;20438;-46
2021/12/06 06:42:22;;;;;;;12.03;10.80;;;5.70;92.60;;;;;;5095789;28;20179;-46
2021/12/06 06:44:52;;;;;;;12.43;11.10;;;5.70;92.50;;;;;;5095155;28;20263;-47
2021/12/06 06:47:18;;;;;;;11.10;10.00;;;5.70;92.60;;;;;;5093739;28;20463;-47
2021/12/06 06:49:43;;;;;;;12.97;11.77;;;5.80;92.60;;;;;;5092973;28;20686;-47
2021/12/06 06:52:09;;;;;;;12.37;11.17;;;5.80;92.60;;;;;;5093124;28;20415;-47
2021/12/06 06:54:35;;;;;;;15.07;11.17;;;5.80;92.60;;;;;;5051984;28;1183007;-47
2021/12/06 06:57:01;;;;;;;13.17;11.73;;;5.70;92.50;;;;;;5095338;28;20189;-46
2021/12/06 06:59:27;;;;;;;11.00;9.90;;;5.70;92.50;;;;;;5094503;28;20830;-46
2021/12/06 07:01:53;;;;;;;12.70;11.40;;;5.70;92.50;;;;;;5111082;28;20184;-46
2021/12/06 07:04:19;;;;;;;13.30;12.00;;;5.70;92.50;;;;;;5115592;28;20204;-46
2021/12/06 07:06:44;;;;;;;12.40;11.20;;;5.70;92.50;;;;;;5117109;28;20508;-46
2021/12/06 07:09:10;;;;;;;13.90;12.50;;;5.70;92.50;;;;;;5116285;28;20183;-46
2021/12/06 07:11:36;;;;;;;13.13;11.73;;;5.70;92.60;;;;;;5117759;28;20217;-47
2021/12/06 07:14:02;;;;;;;13.03;11.53;;;5.70;92.60;;;;;;5119081;28;20417;-47
2021/12/06 07:16:29;;;;;;;13.80;12.50;;;5.70;92.60;;;;;;5118391;28;20179;-47
2021/12/06 07:18:56;;;;;;;14.40;12.90;;;5.80;92.60;;;;;;5117778;28;20432;-47
2021/12/06 07:21:25;;;;;;;14.47;13.10;;;5.80;92.60;;;;;;5115453;28;20695;-48
2021/12/06 07:23:53;;;;;;;13.03;11.80;;;5.80;92.60;;;;;;5116567;28;20874;-47
2021/12/06 07:26:20;;;;;;;13.23;12.00;;;5.80;92.60;;;;;;5098467;28;20468;-47
2021/12/06 07:28:48;;;;;;;14.30;12.73;;;5.80;92.50;;;;;;5115453;28;20461;-47
2021/12/06 07:31:14;;;;;;;12.97;11.70;;;5.80;92.50;;;;;;5111707;28;20723;-47
2021/12/06 07:33:44;;;;;;;14.03;12.70;;;5.80;92.50;;;;;;5116671;28;20813;-47
2021/12/06 07:36:10;;;;;;;12.90;11.57;;;5.80;92.50;;;;;;5116269;28;20472;-47
2021/12/06 07:38:37;;;;;;;13.30;12.10;;;5.80;92.50;;;;;;5117349;28;20417;-47
2021/12/06 07:41:05;;;;;;;13.00;11.80;;;5.80;92.50;;;;;;5117099;28;20183;-47
2021/12/06 07:43:31;;;;;;;16.73;15.03;;;5.90;92.50;;;;;;5117755;28;20541;-47
2021/12/06 07:45:56;;;;;;;22.77;17.83;;;5.90;92.40;;;;;;5118409;28;20473;-47
2021/12/06 07:48:22;;;;;;;25.03;19.87;;;5.90;92.40;;;;;;5118694;28;20525;-47
2021/12/06 07:50:48;;;;;;;25.23;20.30;;;5.90;92.40;;;;;;5118161;28;20169;-47
2021/12/06 07:53:14;;;;;;;25.27;19.77;;;5.90;92.30;;;;;;5117911;28;20248;-45
2021/12/06 07:55:40;;;;;;;19.57;16.93;;;5.90;92.30;;;;;;5117594;28;20462;-47
2021/12/06 07:58:08;;;;;;;19.63;15.70;;;6.00;92.40;;;;;;5117140;28;20414;-47
2021/12/06 08:00:38;;;;;;;17.33;15.63;;;6.00;92.40;;;;;;5116158;28;20434;-47
2021/12/06 08:03:07;;;;;;;15.73;14.13;;;6.00;92.40;;;;;;5117334;28;20931;-47
2021/12/06 08:05:33;;;;;;;16.47;14.57;;;6.00;92.30;;;;;;5117351;28;20431;-47
2021/12/06 08:08:35;;;;;;;14.90;13.37;;;6.00;92.30;;;;;;5117454;28;20470;-48
2021/12/06 08:11:14;;;;;;;14.70;13.20;;;6.00;92.40;;;;;;5071139;28;21235;-47
2021/12/06 08:13:43;;;;;;;13.97;11.93;;;6.00;92.40;;;;;;5115013;28;20409;-47
2021/12/06 08:16:15;;;;;;;13.60;12.20;;;6.00;92.40;;;;;;5114690;28;20852;-47
2021/12/06 08:18:41;;;;;;;12.93;11.07;;;6.10;92.50;;;;;;5115465;28;20419;-47
2021/12/06 08:21:07;;;;;;;14.90;11.90;;;6.10;92.40;;;;;;5098837;28;20462;-47
2021/12/06 08:23:34;;;;;;;13.40;11.60;;;6.10;92.30;;;;;;5110094;28;20429;-47
2021/12/06 08:26:01;;;;;;;14.20;12.20;;;6.20;92.30;;;;;;5098141;28;20455;-47
2021/12/06 08:28:28;;;;;;;14.00;12.03;;;6.20;92.30;;;;;;5095388;28;20470;-47
2021/12/06 08:30:54;;;;;;;6.53;4.80;;;6.30;92.20;;;;;;5097009;28;20423;-47
2021/12/06 08:33:21;;;;;;;4.43;3.70;;;6.80;98.30;;;;;;5097169;28;20680;-47
2021/12/06 08:35:52;;;;;;;5.90;4.70;;;7.90;99.90;;;;;;5095313;28;20848;-46
2021/12/06 08:38:18;;;;;;;6.77;4.93;;;9.10;99.90;;;;;;5096005;28;20410;-47
2021/12/06 08:40:45;;;;;;;7.07;5.43;;;10.10;99.90;;;;;;5099798;28;20485;-47
2021/12/06 08:43:19;;;;;;;11.57;8.77;;;10.80;99.90;;;;;;5100427;28;20756;-47
2021/12/06 08:45:58;;;;;;;14.13;11.77;;;10.90;99.10;;;;;;5110176;28;20498;-47
2021/12/06 08:48:30;;;;;;;12.77;11.47;;;10.60;95.60;;;;;;5116313;28;20452;-48
2021/12/06 08:50:59;;;;;;;14.50;13.00;;;10.20;93.60;;;;;;5115660;28;20435;-48
2021/12/06 08:53:26;;;;;;;12.87;11.53;;;9.80;92.50;;;;;;5114192;28;20469;-48
2021/12/06 08:55:53;;;;;;;14.43;12.67;;;9.50;91.80;;;;;;5114563;28;20879;-46
2021/12/06 08:58:19;;;;;;;15.00;13.40;;;9.20;91.40;;;;;;5113839;28;20417;-46
2021/12/06 09:00:45;;;;;;;14.90;13.37;;;8.90;91.10;;;;;;5115497;28;20719;-46
2021/12/06 09:03:11;;;;;;;14.90;13.10;;;8.60;90.90;;;;;;5114523;28;20574;-47
2021/12/06 09:05:43;;;;;;;15.23;13.63;;;8.40;90.80;;;;;;5114727;28;20431;-46
2021/12/06 09:08:09;;;;;;;17.70;14.70;;;8.30;90.80;;;;;;5116359;28;20544;-46
2021/12/06 09:10:36;;;;;;;17.63;15.83;;;8.20;90.80;;;;;;5114948;28;20450;-47
2021/12/06 09:13:02;;;;;;;17.67;15.90;;;8.20;90.80;;;;;;5114988;28;20410;-47
2021/12/06 09:15:28;;;;;;;18.13;16.20;;;8.20;90.80;;;;;;5115429;28;20422;-47
2021/12/06 09:17:54;;;;;;;20.23;17.67;;;8.20;90.60;;;;;;5115366;28;20466;-47
2021/12/06 09:20:26;;;;;;;17.70;15.90;;;8.20;90.40;;;;;;5115590;28;20179;-47
2021/12/06 09:22:53;;;;;;;20.13;18.00;;;8.20;90.10;;;;;;5115597;28;20506;-47
2021/12/06 09:25:19;;;;;;;19.90;17.63;;;8.10;90.00;;;;;;5116220;28;20426;-47
2021/12/06 09:27:46;;;;;;;20.60;18.40;;;8.00;89.90;;;;;;5116747;28;20465;-47
2021/12/06 09:30:15;;;;;;;20.30;18.10;;;7.90;89.90;;;;;;5117215;28;20460;-47
2021/12/06 09:32:41;;;;;;;21.00;17.67;;;7.90;90.00;;;;;;5119922;28;20674;-47
2021/12/06 09:35:10;;;;;;;20.37;17.17;;;7.90;90.00;;;;;;5118981;28;20425;-47
2021/12/06 09:37:37;;;;;;;14.13;10.83;;;8.00;90.10;;;;;;5119985;28;20175;-47
2021/12/06 09:40:04;;;;;;;6.60;4.57;;;8.20;91.60;;;;;;5118487;28;20850;-42
2021/12/06 09:42:33;;;;;;;7.60;5.67;;;9.20;99.90;;;;;;5119779;28;20444;-42
2021/12/06 09:44:59;;;;;;;8.43;5.07;;;10.80;99.90;;;;;;5118096;28;20447;-42
2021/12/06 09:47:28;;;;;;;9.00;7.60;;;11.90;99.60;;;;;;5118069;28;20506;-42
2021/12/06 09:49:54;;;;;;;13.60;10.70;;;12.40;97.30;;;;;;5119384;28;20929;-41
2021/12/06 09:52:21;;;;;;;13.40;11.47;;;12.60;94.70;;;;;;5118151;28;20400;-40
2021/12/06 09:54:46;;;;;;;15.03;12.87;;;12.50;91.90;;;;;;5118282;28;20464;-41
2021/12/06 09:57:12;;;;;;;14.20;12.77;;;12.20;90.30;;;;;;5117791;28;20427;-39
2021/12/06 09:59:40;;;;;;;12.33;11.03;;;11.80;86.80;;;;;;5118594;27;20832;-40
2021/12/06 10:02:12;;;;;;;14.87;12.93;;;11.40;84.60;;;;;;5117819;28;20424;-40
2021/12/06 10:04:41;;;;;;;13.90;12.50;;;11.00;82.90;;;;;;5118838;28;20425;-39
2021/12/06 10:07:09;;;;;;;14.47;11.87;;;10.60;82.10;;;;;;5119393;28;20462;-41
2021/12/06 10:09:36;;;;;;;12.37;11.13;;;10.30;81.90;;;;;;5118346;28;20506;-41
2021/12/06 10:12:02;;;;;;;13.60;12.20;;;10.00;81.80;;;;;;5118674;28;20421;-41
2021/12/06 10:14:28;;;;;;;12.47;11.27;;;9.80;83.30;;;;;;5119564;28;20422;-41
2021/12/06 10:16:55;;;;;;;11.27;9.70;;;9.70;83.50;;;;;;5118221;27;20795;-40
2021/12/06 10:19:21;;;;;;;10.30;9.30;;;9.60;83.60;;;;;;5117396;28;20877;-40
2021/12/06 10:21:48;;;;;;;8.57;7.70;;;9.40;83.50;;;;;;5118701;28;20462;-41
2021/12/06 10:24:21;;;;;;;10.40;9.37;;;9.40;83.60;;;;;;5117782;28;20418;-40
2021/12/06 10:26:47;;;;;;;9.57;8.60;;;9.30;83.70;;;;;;5117662;28;20456;-41
2021/12/06 10:29:22;;;;;;;8.70;7.70;;;9.30;83.50;;;;;;5118661;27;20445;-40
2021/12/06 10:31:53;;;;;;;11.57;9.60;;;9.30;83.50;;;;;;5119395;28;20408;-41
2021/12/06 10:34:27;;;;;;;10.57;9.47;;;9.30;83.30;;;;;;5120149;28;20838;-40
2021/12/06 10:36:54;;;;;;;5.73;4.17;;;9.40;83.20;;;;;;5118098;28;20465;-45
2021/12/06 10:39:22;;;;;;;6.03;4.27;;;10.70;98.40;;;;;;5116232;28;20414;-44
2021/12/06 10:41:53;;;;;;;5.60;4.50;;;12.20;98.00;;;;;;5115343;28;20511;-46
2021/12/06 10:44:20;;;;;;;4.90;4.40;;;13.20;95.60;;;;;;5115278;28;20421;-46
2021/12/06 10:46:49;;;;;;;6.00;4.20;;;14.50;92.70;;;;;;5117387;28;20416;-44
2021/12/06 10:49:22;;;;;;;6.03;5.00;;;15.80;90.10;;;;;;5117187;28;20421;-45
2021/12/06 10:51:47;;;;;;;7.27;6.57;;;16.90;84.10;;;;;;5118164;28;20469;-46
2021/12/06 10:54:21;;;;;;;7.23;6.00;;;17.90;77.20;;;;;;5116770;28;21082;-44
2021/12/06 10:56:51;;;;;;;7.73;7.03;;;18.70;69.00;;;;;;5115989;28;20190;-45
2021/12/06 10:59:22;;;;;;;8.50;6.50;;;19.60;60.90;;;;;;5115424;28;20417;-45
2021/12/06 11:01:51;;;;;;;5.37;4.87;;;20.30;57.80;;;;;;5115230;28;20574;-44
2021/12/06 11:04:19;;;;;;;5.57;5.07;;;21.10;54.70;;;;;;5115231;28;20835;-44
2021/12/06 11:06:52;;;;;;;5.30;4.80;;;21.80;51.30;;;;;;5115061;28;20426;-45
2021/12/06 11:09:26;;;;;;;5.03;4.50;;;22.60;49.50;;;;;;5113316;28;20478;-43
2021/12/06 11:11:57;;;;;;;4.77;4.37;;;23.10;47.10;;;;;;5113881;28;20429;-46
2021/12/06 11:14:27;;;;;;;5.17;3.70;;;23.40;47.70;;;;;;5115113;28;20776;-45
2021/12/06 11:16:56;;;;;;;4.37;3.60;;;24.00;47.80;;;;;;5115877;28;20753;-45
2021/12/06 11:19:24;;;;;;;4.83;4.33;;;24.50;47.20;;;;;;5098727;28;20447;-44
2021/12/06 11:21:51;;;;;;;4.03;3.73;;;25.10;45.10;;;;;;5114668;28;21144;-44
2021/12/06 11:24:39;;;;;;;4.20;3.70;;;25.60;43.90;;;;;;5112636;28;20425;-45
2021/12/06 11:27:28;;;;;;;3.60;3.30;;;25.90;42.70;;;;;;5116055;28;20516;-45
2021/12/06 11:30:04;;;;;;;4.60;4.10;;;26.50;41.50;;;;;;5114922;28;20483;-44
2021/12/06 11:32:37;;;;;;;3.80;3.50;;;27.50;40.20;;;;;;5114453;28;20482;-47
2021/12/06 11:35:24;;;;;;;3.83;3.23;;;29.00;37.30;;;;;;5115712;28;20415;-45
2021/12/06 11:37:52;;;;;;;4.20;3.80;;;30.80;35.60;;;;;;5115413;28;20496;-43
2021/12/06 11:40:27;;;;;;;3.27;2.97;;;32.20;33.40;;;;;;5116319;28;20425;-44
2021/12/06 11:43:06;;;;;;;2.97;2.70;;;33.40;31.50;;;;;;5116745;28;20514;-43
2021/12/06 11:45:48;;;;;;;3.03;2.73;;;34.30;29.80;;;;;;5115376;28;20820;-44
2021/12/06 11:48:24;;;;;;;3.20;2.90;;;35.00;29.20;;;;;;5114366;28;20439;-44
2021/12/06 11:51:16;;;;;;;3.27;2.80;;;34.80;28.20;;;;;;5115456;28;20418;-41
2021/12/06 11:53:50;;;;;;;3.77;3.47;;;33.10;28.80;;;;;;5114363;28;20449;-40
2021/12/06 11:56:22;;;;;;;5.10;3.53;;;30.90;30.20;;;;;;5114536;28;20441;-40
2021/12/06 11:58:52;;;;;;;3.53;3.23;;;29.10;31.60;;;;;;5108753;28;20420;-41
2021/12/06 12:01:47;;;;;;;3.60;3.30;;;27.50;32.90;;;;;;5108055;28;20423;-43
2021/12/06 12:04:20;;;;;;;3.17;2.73;;;26.10;34.40;;;;;;5078006;28;20518;-42
2021/12/06 12:07:01;;;;;;;4.20;3.90;;;24.90;35.70;;;;;;5094572;28;20689;-42
2021/12/06 12:09:34;;;;;;;4.57;3.77;;;24.70;35.90;;;;;;5095450;28;20548;-43
2021/12/06 12:12:05;;;;;;;4.00;3.60;;;24.70;36.00;;;;;;5095294;28;20487;-41
2021/12/06 12:14:36;;;;;;;4.97;4.43;;;24.30;36.00;;;;;;5095907;28;20464;-42
2021/12/06 12:17:06;;;;;;;5.00;4.60;;;24.80;36.40;;;;;;5094716;28;20458;-42
2021/12/06 12:19:32;;;;;;;4.60;4.20;;;25.90;34.80;;;;;;5095317;28;20431;-43
2021/12/06 12:21:59;;;;;;;5.07;4.67;;;26.00;33.90;;;;;;5093805;28;20704;-42
2021/12/06 12:24:25;;;;;;;3.97;3.57;;;25.90;33.90;;;;;;5093721;28;20434;-41
2021/12/06 12:27:02;;;;;;;4.50;4.20;;;25.30;34.40;;;;;;5092316;28;20484;-43
2021/12/06 12:29:28;;;;;;;4.63;3.80;;;24.60;35.00;;;;;;5110566;28;20445;-46
2021/12/06 12:32:04;;;;;;;4.80;3.93;;;24.30;35.60;;;;;;5115117;28;20417;-41
2021/12/06 12:34:35;;;;;;;4.00;2.97;;;25.10;35.70;;;;;;5114063;28;20441;-44
2021/12/06 12:37:07;;;;;;;3.30;3.00;;;26.20;34.80;;;;;;5115051;28;20432;-43
2021/12/06 12:39:33;;;;;;;3.80;3.50;;;27.80;33.50;;;;;;5091930;28;20455;-40
2021/12/06 12:42:02;;;;;;;3.63;3.03;;;29.50;32.00;;;;;;5113732;28;20514;-41
2021/12/06 12:44:50;;;;;;;3.27;2.97;;;30.10;30.10;;;;;;5113242;28;20442;-42
2021/12/06 12:47:25;;;;;;;4.90;3.13;;;30.90;29.50;;;;;;5114295;28;20490;-43
2021/12/06 12:50:00;;;;;;;3.47;3.17;;;31.80;28.90;;;;;;5109391;28;20431;-41
2021/12/06 12:52:37;;;;;;;3.47;3.07;;;32.20;28.40;;;;;;5114764;28;20373;-42
2021/12/06 12:55:23;;;;;;;3.40;3.10;;;32.70;28.00;;;;;;5116124;28;20922;-43
2021/12/06 12:57:50;;;;;;;3.70;3.40;;;33.20;27.70;;;;;;5117055;28;20393;-41
2021/12/06 13:00:20;;;;;;;3.40;3.10;;;33.20;27.40;;;;;;5117187;28;20431;-42
2021/12/06 13:02:46;;;;;;;3.90;3.23;;;33.70;27.20;;;;;;5116684;28;20742;-41